Collinsville, VA (24078)

9:05 AM EST on February 07, 2016 (GMT -0500)
Patrick Henry Mall Area | | Change Station
CLOSE
Current Station
Personal Weather Station
Location: Martinsville, VA
Elevation: 1020 ft
Nearby Weather Stations

Elev 1020 ft 36.69 °N, 79.86 °W | Updated 6 minutes ago

Clear
Clear
33.9 °F
Feels Like 34 °F
N
0.0
Wind Variable Wind from West
Gusts 2.0 mph

Today
High -- | Low -- °F
--% Chance of Precip.
Yesterday
High -- | Low -- °F
Precip. -- in
Pressure 30.14 in
Visibility 10.0 miles
Clouds Clear
Windchill 34 °F
Dew Point 23 °F
Humidity 65%
Rainfall 0.00 in
Snow Depth Not available.
7:16 AM 5:51 PM
Waning Crescent, 1% visible
METAR KMTV 071355Z AUTO 00000KT 10SM CLR 00/M05 A3014 RMK AO2 T10051055
Pressure 30.14 in
Visibility 10.0 miles
Clouds Clear
Windchill 34 °F
Dew Point 23 °F
Humidity 65%
Rainfall 0.00 in
Snow Depth Not available.
7:16 AM 5:51 PM
Waning Crescent, 1% visible
METAR KMTV 071355Z AUTO 00000KT 10SM CLR 00/M05 A3014 RMK AO2 T10051055

10-Day Weather Forecast

Almanac

Astronomy

Feb. 07, 2016 Rise Set
Actual Time
Civil Twilight
Nautical Twilight
Astronomical Twilight
Moon
Length of Visible Light
Length of Day
Tomorrow will be .
, % of the Moon is Illuminated

Today's Extremes

State Highs State Lows

Community

WunderPhotos

Upload Photos

1,891,204 photos uploaded!

WunderBlog® & News

Nearby

Air Quality

  Air Quality AQ Index Pollutant
Not available.

Snow Depth

Station Depth Elevation

Earthquake Activity

City Distance Mag. Time & Date
Minimum magnitude displayed is 2.5.

Coastal Water Temperatures

Place Temperature

Stations

Nearby Weather Stations

Station Location Temp. Windchill Dew Point Humidity Wind Precip. Elev Updated Type
                   

Watches & Warnings

There are currently no watches in effect.